createdAt,value
2023-05-09T00:00:12.827Z,19.53
2023-05-09T00:03:16.967Z,19.55
2023-05-09T00:06:19.927Z,19.52
2023-05-09T00:09:22.744Z,19.48
2023-05-09T00:12:25.566Z,19.49
2023-05-09T00:15:29.000Z,19.51
2023-05-09T00:18:34.190Z,19.50
2023-05-09T00:21:37.016Z,19.46
2023-05-09T00:24:39.911Z,19.49
2023-05-09T00:27:42.657Z,19.51
2023-05-09T00:30:45.738Z,19.48
2023-05-09T00:33:49.909Z,19.48
2023-05-09T00:36:52.682Z,19.51
2023-05-09T00:39:55.457Z,19.54
2023-05-09T00:42:59.803Z,19.49
2023-05-09T00:46:02.655Z,19.48
2023-05-09T00:49:06.966Z,19.54
2023-05-09T00:52:09.790Z,19.51
2023-05-09T00:55:12.883Z,19.55
2023-05-09T00:58:16.015Z,19.51
2023-05-09T01:01:18.921Z,19.49
2023-05-09T01:04:23.275Z,19.51
2023-05-09T01:07:31.524Z,19.47
2023-05-09T01:10:36.552Z,19.50
2023-05-09T01:13:42.526Z,19.58
2023-05-09T01:16:49.415Z,19.54
2023-05-09T01:20:01.404Z,19.46
2023-05-09T01:23:13.470Z,19.49
2023-05-09T01:26:20.317Z,19.49
2023-05-09T01:29:32.918Z,19.45
2023-05-09T01:32:37.526Z,19.42
2023-05-09T01:35:43.838Z,19.44
2023-05-09T01:38:49.875Z,19.43
2023-05-09T01:41:53.388Z,19.41
2023-05-09T01:44:58.673Z,19.45
2023-05-09T01:48:05.552Z,19.42
2023-05-09T01:51:10.292Z,19.41
2023-05-09T01:54:13.704Z,19.41
2023-05-09T01:57:17.030Z,19.43
2023-05-09T02:00:21.264Z,19.38
2023-05-09T02:03:24.228Z,19.38
2023-05-09T02:06:29.811Z,19.38
2023-05-09T02:09:32.604Z,19.40
2023-05-09T02:12:35.322Z,19.40
2023-05-09T02:15:40.083Z,19.37
2023-05-09T02:18:42.857Z,19.42
2023-05-09T02:21:45.726Z,19.38
2023-05-09T02:24:48.587Z,19.33
2023-05-09T02:27:52.715Z,19.37
2023-05-09T02:30:58.732Z,19.35
2023-05-09T02:34:03.046Z,19.34
2023-05-09T02:37:06.518Z,19.34
2023-05-09T02:40:10.606Z,19.35
2023-05-09T02:43:15.188Z,19.30
2023-05-09T02:46:19.537Z,19.31
2023-05-09T02:49:31.546Z,19.30
2023-05-09T02:52:35.429Z,19.28
2023-05-09T02:55:38.417Z,19.31
2023-05-09T02:58:41.210Z,19.30
2023-05-09T03:01:45.525Z,19.34
2023-05-09T03:04:48.417Z,19.32
2023-05-09T03:07:51.657Z,19.35
2023-05-09T03:10:54.459Z,19.33
2023-05-09T03:13:57.229Z,19.32
2023-05-09T03:17:01.395Z,19.34
2023-05-09T03:20:05.617Z,19.36
2023-05-09T03:23:08.456Z,19.37
2023-05-09T03:26:11.194Z,19.37
2023-05-09T03:29:14.017Z,19.34
2023-05-09T03:32:18.146Z,19.38
2023-05-09T03:35:21.053Z,19.39
2023-05-09T03:38:24.446Z,19.37
2023-05-09T03:41:27.298Z,19.39
2023-05-09T03:44:30.093Z,19.38
2023-05-09T03:47:34.243Z,19.37
2023-05-09T03:50:37.196Z,19.39
2023-05-09T03:53:39.944Z,19.43
2023-05-09T03:56:42.793Z,19.34
2023-05-09T03:59:45.611Z,19.38
2023-05-09T04:02:49.986Z,19.38
2023-05-09T04:05:52.914Z,19.40
2023-05-09T04:08:55.685Z,19.41
2023-05-09T04:11:58.467Z,19.42
2023-05-09T04:15:01.293Z,19.40
2023-05-09T04:18:05.821Z,19.46
2023-05-09T04:21:08.666Z,19.44
2023-05-09T04:24:11.762Z,19.50
2023-05-09T04:27:14.504Z,19.52
2023-05-09T04:30:17.612Z,19.56
2023-05-09T04:33:22.261Z,19.49
2023-05-09T04:36:25.212Z,19.54
2023-05-09T04:39:28.022Z,19.60
2023-05-09T04:42:33.539Z,19.54
2023-05-09T04:45:36.372Z,19.57
2023-05-09T04:48:40.525Z,19.58
2023-05-09T04:51:43.297Z,19.62
2023-05-09T04:54:46.176Z,19.52
2023-05-09T04:57:48.954Z,19.64
2023-05-09T05:00:51.744Z,19.57
2023-05-09T05:03:56.089Z,19.60
2023-05-09T05:06:58.858Z,19.55
2023-05-09T05:10:01.654Z,19.59
2023-05-09T05:13:04.426Z,19.60
2023-05-09T05:16:07.369Z,19.52
2023-05-09T05:19:11.586Z,19.60
2023-05-09T05:22:14.299Z,19.67
2023-05-09T05:25:17.887Z,19.74
2023-05-09T05:28:20.786Z,19.73
2023-05-09T05:31:23.827Z,19.70
2023-05-09T05:34:28.003Z,19.70
2023-05-09T05:37:30.794Z,19.71
2023-05-09T05:40:33.638Z,19.78
2023-05-09T05:43:36.347Z,19.77
2023-05-09T05:46:39.176Z,19.79
2023-05-09T05:49:43.332Z,19.80
2023-05-09T05:52:46.067Z,19.81
2023-05-09T05:55:49.231Z,19.83
2023-05-09T05:58:52.081Z,19.84
2023-05-09T06:01:54.876Z,19.86
2023-05-09T06:04:59.047Z,19.85
2023-05-09T06:08:01.842Z,19.88
2023-05-09T06:11:06.021Z,19.87
2023-05-09T06:14:08.889Z,19.89
2023-05-09T06:17:11.899Z,19.92
2023-05-09T06:20:16.109Z,19.90
2023-05-09T06:23:22.261Z,19.91
2023-05-09T06:26:25.086Z,19.96
2023-05-09T06:29:27.936Z,19.91
2023-05-09T06:32:30.681Z,19.96
2023-05-09T06:35:34.921Z,19.95
2023-05-09T06:38:37.703Z,19.97
2023-05-09T06:41:40.633Z,19.98
2023-05-09T06:44:44.017Z,19.97
2023-05-09T06:47:46.843Z,19.99
2023-05-09T06:50:51.450Z,20.02
2023-05-09T06:53:54.170Z,20.04
2023-05-09T06:56:57.000Z,20.02
2023-05-09T06:59:59.743Z,20.05
2023-05-09T07:03:02.618Z,20.05
2023-05-09T07:06:07.127Z,20.10
2023-05-09T07:09:10.093Z,20.09
2023-05-09T07:12:12.847Z,20.09
2023-05-09T07:15:25.604Z,20.07
2023-05-09T07:18:31.753Z,20.10
2023-05-09T07:21:35.937Z,20.15
2023-05-09T07:24:38.738Z,20.12
2023-05-09T07:27:41.550Z,20.13
2023-05-09T07:30:44.342Z,20.17
2023-05-09T07:33:47.060Z,20.18
2023-05-09T07:36:51.237Z,20.18
2023-05-09T07:39:54.341Z,20.16
2023-05-09T07:42:57.129Z,20.17
2023-05-09T07:45:59.993Z,20.14
2023-05-09T07:49:02.863Z,20.20
2023-05-09T07:52:07.190Z,20.25
2023-05-09T07:55:10.559Z,20.23
2023-05-09T07:58:13.302Z,20.26
2023-05-09T08:01:16.256Z,20.31
2023-05-09T08:04:19.049Z,20.26
2023-05-09T08:07:23.148Z,20.27
2023-05-09T08:10:27.016Z,20.32
2023-05-09T08:13:29.898Z,20.31
2023-05-09T08:16:32.844Z,20.34
2023-05-09T08:19:35.723Z,20.33
2023-05-09T08:22:41.364Z,20.50
2023-05-09T08:25:44.245Z,20.14
2023-05-09T08:28:47.040Z,19.85
2023-05-09T08:31:49.902Z,19.89
2023-05-09T08:34:52.817Z,19.83
2023-05-09T08:37:56.965Z,19.78
2023-05-09T08:41:03.317Z,19.84
2023-05-09T08:44:06.274Z,20.10
2023-05-09T08:47:09.109Z,19.83
2023-05-09T08:50:15.413Z,19.76
2023-05-09T08:53:19.843Z,19.67
2023-05-09T08:56:22.685Z,20.04
2023-05-09T08:59:25.547Z,20.22
2023-05-09T09:02:30.232Z,20.26
2023-05-09T09:05:41.414Z,20.27
2023-05-09T09:08:47.156Z,20.26
2023-05-09T09:11:50.070Z,20.30
2023-05-09T09:14:55.498Z,20.29
2023-05-09T09:17:59.325Z,20.30
2023-05-09T09:21:06.753Z,20.33
2023-05-09T09:24:13.959Z,20.32
2023-05-09T09:27:16.961Z,20.32
2023-05-09T09:30:20.046Z,20.33
2023-05-09T09:33:23.104Z,20.36
2023-05-09T09:36:29.451Z,20.30
2023-05-09T09:39:33.763Z,20.33
2023-05-09T09:42:43.491Z,20.37
2023-05-09T09:45:49.696Z,20.34
2023-05-09T09:48:55.873Z,20.35
2023-05-09T09:51:59.350Z,20.34
2023-05-09T09:55:04.777Z,20.33
2023-05-09T09:58:17.280Z,20.38
2023-05-09T10:01:20.895Z,20.34
2023-05-09T10:04:26.557Z,20.35
2023-05-09T10:07:34.400Z,20.39
2023-05-09T10:10:39.095Z,20.34
2023-05-09T10:13:42.628Z,20.32
2023-05-09T10:16:45.742Z,20.33
2023-05-09T10:19:50.888Z,20.34
2023-05-09T10:22:55.310Z,20.36
2023-05-09T10:26:06.135Z,20.38
2023-05-09T10:29:11.777Z,20.34
2023-05-09T10:32:17.378Z,20.31
2023-05-09T10:35:21.322Z,20.36
2023-05-09T10:38:24.716Z,20.40
2023-05-09T10:41:29.656Z,20.38
2023-05-09T10:44:34.208Z,20.39
2023-05-09T10:47:37.429Z,20.39
2023-05-09T10:50:42.664Z,20.42
2023-05-09T10:53:46.488Z,20.39
2023-05-09T10:56:50.621Z,20.38
2023-05-09T10:59:53.428Z,20.42
2023-05-09T11:03:08.962Z,20.40
2023-05-09T11:06:34.935Z,20.40
2023-05-09T11:09:39.174Z,20.39
2023-05-09T11:12:57.782Z,20.43
2023-05-09T11:16:11.994Z,20.43
2023-05-09T11:19:34.405Z,20.43
2023-05-09T11:22:41.447Z,20.40
2023-05-09T11:25:46.751Z,20.45
2023-05-09T11:28:57.508Z,20.45
2023-05-09T11:32:07.206Z,20.47
2023-05-09T11:35:11.220Z,20.45
2023-05-09T11:38:22.278Z,20.46
2023-05-09T11:41:25.760Z,20.46
2023-05-09T11:44:31.858Z,20.42
2023-05-09T11:47:36.795Z,20.44
2023-05-09T11:50:41.270Z,20.49
2023-05-09T11:53:46.928Z,20.50
2023-05-09T11:56:49.697Z,20.49
2023-05-09T11:59:54.005Z,20.51
2023-05-09T12:02:57.054Z,20.50
2023-05-09T12:06:00.206Z,20.55
2023-05-09T12:09:02.975Z,20.56
2023-05-09T12:12:10.948Z,20.55
2023-05-09T12:15:15.617Z,20.55
2023-05-09T12:18:18.633Z,20.53
2023-05-09T12:21:22.251Z,20.51
2023-05-09T12:24:26.738Z,20.53
2023-05-09T12:27:29.762Z,20.52
2023-05-09T12:30:34.048Z,20.54
2023-05-09T12:34:01.833Z,20.54
2023-05-09T12:37:05.838Z,20.53
2023-05-09T12:40:12.589Z,20.52
2023-05-09T12:43:15.605Z,20.55
2023-05-09T12:46:20.558Z,20.55
2023-05-09T12:49:23.788Z,20.55
2023-05-09T12:52:26.952Z,20.55
2023-05-09T12:55:30.041Z,20.56
2023-05-09T12:58:33.681Z,20.59
2023-05-09T13:01:37.836Z,20.61
2023-05-09T13:04:40.575Z,20.62
2023-05-09T13:07:43.791Z,20.63
2023-05-09T13:10:47.640Z,20.63
2023-05-09T13:13:50.500Z,20.69
2023-05-09T13:16:55.012Z,20.69
2023-05-09T13:19:57.768Z,20.67
2023-05-09T13:23:00.527Z,20.67
2023-05-09T13:26:03.663Z,20.68
2023-05-09T13:29:06.396Z,20.65
2023-05-09T13:32:10.491Z,20.68
2023-05-09T13:35:13.256Z,20.69
2023-05-09T13:38:16.047Z,20.69
2023-05-09T13:41:23.788Z,20.72
2023-05-09T13:44:26.836Z,20.73
2023-05-09T13:47:31.111Z,20.72
2023-05-09T13:50:34.012Z,20.73
2023-05-09T13:53:38.858Z,20.74
2023-05-09T13:56:42.867Z,20.71
2023-05-09T13:59:45.689Z,20.73
2023-05-09T14:02:49.874Z,20.73
2023-05-09T14:05:52.724Z,20.72
2023-05-09T14:08:55.451Z,20.72
2023-05-09T14:12:01.136Z,20.71
2023-05-09T14:15:04.795Z,20.71
2023-05-09T14:18:09.012Z,20.73
2023-05-09T14:21:11.851Z,20.68
2023-05-09T14:24:16.320Z,20.70
2023-05-09T14:27:19.171Z,20.78
2023-05-09T14:30:21.960Z,20.77
2023-05-09T14:33:26.696Z,20.76
2023-05-09T14:36:29.710Z,20.76
2023-05-09T14:39:32.504Z,20.76
2023-05-09T14:42:35.623Z,20.85
2023-05-09T14:45:38.531Z,20.80
2023-05-09T14:48:42.673Z,20.76
2023-05-09T14:51:45.690Z,20.79
2023-05-09T14:54:48.415Z,20.73
2023-05-09T14:57:51.210Z,20.75
2023-05-09T15:00:54.732Z,20.77
2023-05-09T15:03:58.916Z,20.75
2023-05-09T15:07:01.752Z,20.76
2023-05-09T15:10:04.682Z,20.74
2023-05-09T15:13:07.725Z,20.70
2023-05-09T15:16:10.532Z,20.73
2023-05-09T15:19:14.815Z,20.74
2023-05-09T15:22:17.622Z,20.72
2023-05-09T15:25:20.606Z,20.73
2023-05-09T15:28:23.909Z,20.72
2023-05-09T15:31:26.784Z,20.72
2023-05-09T15:34:30.935Z,20.72
2023-05-09T15:37:35.783Z,20.69
2023-05-09T15:40:39.331Z,20.67
2023-05-09T15:43:42.203Z,20.66
2023-05-09T15:46:45.097Z,20.64
2023-05-09T15:49:49.265Z,20.61
2023-05-09T15:52:52.869Z,20.60
2023-05-09T15:55:55.657Z,20.58
2023-05-09T15:58:59.341Z,20.63
2023-05-09T16:02:02.261Z,20.56
2023-05-09T16:05:06.897Z,20.55
2023-05-09T16:08:09.702Z,20.51
2023-05-09T16:11:12.470Z,20.51
2023-05-09T16:14:15.262Z,20.52
2023-05-09T16:17:18.031Z,20.53
2023-05-09T16:20:22.155Z,20.51
2023-05-09T16:23:25.976Z,20.49
2023-05-09T16:26:28.783Z,20.50
2023-05-09T16:29:31.550Z,20.48
2023-05-09T16:32:34.356Z,20.49
2023-05-09T16:35:38.549Z,20.52
2023-05-09T16:38:41.555Z,19.66
2023-05-09T16:41:44.624Z,19.38
2023-05-09T16:44:47.917Z,19.05
2023-05-09T16:47:51.173Z,18.93
2023-05-09T16:50:55.449Z,18.84
2023-05-09T16:53:58.625Z,18.59
2023-05-09T16:57:03.311Z,18.56
2023-05-09T17:00:07.981Z,19.61
2023-05-09T17:03:10.797Z,19.95
2023-05-09T17:06:15.051Z,20.10
2023-05-09T17:09:17.788Z,20.12
2023-05-09T17:12:20.619Z,20.13
2023-05-09T17:15:23.375Z,20.15
2023-05-09T17:18:37.547Z,20.13
2023-05-09T17:21:43.330Z,20.17
2023-05-09T17:24:46.073Z,20.13
2023-05-09T17:27:49.405Z,20.13
2023-05-09T17:30:52.132Z,20.10
2023-05-09T17:33:54.856Z,20.10
2023-05-09T17:36:59.012Z,20.10
2023-05-09T17:40:01.770Z,20.10
2023-05-09T17:43:04.526Z,20.13
2023-05-09T17:46:08.185Z,20.11
2023-05-09T17:49:14.091Z,20.14
2023-05-09T17:52:18.462Z,20.11
2023-05-09T17:55:21.431Z,20.08
2023-05-09T17:58:24.372Z,20.10
2023-05-09T18:01:27.214Z,20.08
2023-05-09T18:04:31.613Z,20.09
2023-05-09T18:07:35.927Z,20.10
2023-05-09T18:10:38.743Z,20.05
2023-05-09T18:13:41.518Z,20.08
2023-05-09T18:16:44.326Z,20.05
2023-05-09T18:19:47.066Z,20.04
2023-05-09T18:22:51.262Z,20.01
2023-05-09T18:25:55.167Z,20.01
2023-05-09T18:28:59.037Z,20.03
2023-05-09T18:32:02.120Z,20.02
2023-05-09T18:35:05.525Z,20.03
2023-05-09T18:38:09.654Z,20.01
2023-05-09T18:41:13.290Z,20.01
2023-05-09T18:44:16.007Z,19.92
2023-05-09T18:47:18.942Z,18.92
2023-05-09T18:50:23.227Z,18.13
2023-05-09T18:53:28.976Z,17.83
2023-05-09T18:56:37.652Z,17.75
2023-05-09T18:59:40.801Z,17.70
2023-05-09T19:02:45.019Z,17.65
2023-05-09T19:05:47.987Z,17.48
2023-05-09T19:08:53.939Z,17.44
2023-05-09T19:11:56.699Z,17.33
2023-05-09T19:14:59.497Z,17.40
2023-05-09T19:18:02.443Z,17.38
2023-05-09T19:21:05.473Z,17.65
2023-05-09T19:24:09.822Z,17.20
2023-05-09T19:27:12.579Z,17.38
2023-05-09T19:30:16.380Z,17.18
2023-05-09T19:33:19.676Z,17.12
2023-05-09T19:36:22.499Z,17.30
2023-05-09T19:39:26.712Z,17.09
2023-05-09T19:42:29.479Z,17.14
2023-05-09T19:45:32.316Z,17.26
2023-05-09T19:48:35.919Z,17.14
2023-05-09T19:51:38.785Z,17.06
2023-05-09T19:54:42.923Z,17.21
2023-05-09T19:57:45.792Z,17.03
2023-05-09T20:00:49.465Z,16.95
2023-05-09T20:03:52.850Z,16.90
2023-05-09T20:06:55.608Z,17.94
2023-05-09T20:09:59.776Z,18.52
2023-05-09T20:13:04.404Z,18.62
2023-05-09T20:16:07.260Z,18.75
2023-05-09T20:19:10.031Z,18.79
2023-05-09T20:22:12.721Z,18.90
2023-05-09T20:25:16.767Z,18.92
2023-05-09T20:28:20.519Z,18.99
2023-05-09T20:31:23.268Z,18.99
2023-05-09T20:34:27.275Z,19.04
2023-05-09T20:37:30.071Z,18.97
2023-05-09T20:40:34.186Z,19.04
2023-05-09T20:43:36.918Z,19.06
2023-05-09T20:46:40.326Z,19.07
2023-05-09T20:49:43.159Z,19.25
2023-05-09T20:52:45.980Z,19.14
2023-05-09T20:55:50.699Z,19.09
2023-05-09T20:58:53.640Z,19.06
2023-05-09T21:01:56.661Z,19.10
2023-05-09T21:04:59.375Z,19.10
2023-05-09T21:08:02.089Z,19.37
2023-05-09T21:11:06.148Z,19.15
2023-05-09T21:14:09.317Z,19.15
2023-05-09T21:17:12.166Z,19.12
2023-05-09T21:20:15.613Z,19.35
2023-05-09T21:23:18.970Z,19.31
2023-05-09T21:26:23.291Z,19.32
2023-05-09T21:29:26.045Z,19.29
2023-05-09T21:32:29.049Z,19.26
2023-05-09T21:35:31.774Z,19.29
2023-05-09T21:38:34.464Z,19.29
2023-05-09T21:41:39.291Z,19.28
2023-05-09T21:44:41.941Z,19.23
2023-05-09T21:47:44.728Z,19.34
2023-05-09T21:50:47.550Z,19.27
2023-05-09T21:53:50.286Z,19.27
2023-05-09T21:56:54.417Z,19.31
2023-05-09T22:00:01.210Z,19.36
2023-05-09T22:03:04.103Z,19.33
2023-05-09T22:06:07.731Z,19.29
2023-05-09T22:09:10.794Z,19.27
2023-05-09T22:12:14.861Z,19.27
2023-05-09T22:15:17.539Z,19.27
2023-05-09T22:18:20.164Z,19.29
2023-05-09T22:21:22.881Z,19.23
2023-05-09T22:24:25.589Z,19.22
2023-05-09T22:27:29.666Z,19.24
2023-05-09T22:30:32.361Z,19.21
2023-05-09T22:33:35.230Z,19.20
2023-05-09T22:36:38.008Z,19.24
2023-05-09T22:39:40.773Z,19.17
2023-05-09T22:42:44.960Z,19.18
2023-05-09T22:45:47.745Z,19.17
2023-05-09T22:48:50.610Z,19.16
2023-05-09T22:51:53.388Z,19.22
2023-05-09T22:54:56.244Z,19.18
2023-05-09T22:58:00.414Z,19.17
2023-05-09T23:01:03.309Z,19.16
2023-05-09T23:04:06.278Z,19.16
2023-05-09T23:07:09.061Z,19.17
2023-05-09T23:10:11.863Z,19.15
2023-05-09T23:13:16.084Z,19.17
2023-05-09T23:16:18.840Z,19.13
2023-05-09T23:19:21.674Z,19.15
2023-05-09T23:22:24.428Z,19.09
2023-05-09T23:25:27.178Z,19.16
2023-05-09T23:28:31.443Z,19.10
2023-05-09T23:31:34.232Z,19.16
2023-05-09T23:34:37.088Z,19.13
2023-05-09T23:37:39.900Z,19.15
2023-05-09T23:40:44.927Z,19.17
2023-05-09T23:43:49.169Z,19.18
2023-05-09T23:46:52.002Z,19.09
2023-05-09T23:49:54.843Z,19.14
2023-05-09T23:52:57.594Z,19.16
2023-05-09T23:56:00.423Z,19.10
2023-05-09T23:59:04.583Z,19.10
